sensor_id;sensor_type;location;lat;lon;timestamp;P1;durP1;ratioP1;P2;durP2;ratioP2
20334;SDS011;10325;51.468;5.804;2023-02-01T00:01:19;4.73;;;1.80;;
20334;SDS011;10325;51.468;5.804;2023-02-01T00:03:48;2.70;;;1.87;;
20334;SDS011;10325;51.468;5.804;2023-02-01T00:06:18;2.83;;;2.00;;
20334;SDS011;10325;51.468;5.804;2023-02-01T00:08:52;4.30;;;1.90;;
20334;SDS011;10325;51.468;5.804;2023-02-01T00:11:26;4.90;;;2.27;;
20334;SDS011;10325;51.468;5.804;2023-02-01T00:13:57;3.63;;;2.20;;
20334;SDS011;10325;51.468;5.804;2023-02-01T00:16:30;3.80;;;2.37;;
20334;SDS011;10325;51.468;5.804;2023-02-01T00:19:12;4.80;;;2.10;;
20334;SDS011;10325;51.468;5.804;2023-02-01T00:21:51;4.23;;;1.90;;
20334;SDS011;10325;51.468;5.804;2023-02-01T00:24:20;2.30;;;1.70;;
20334;SDS011;10325;51.468;5.804;2023-02-01T00:26:50;4.17;;;2.10;;
20334;SDS011;10325;51.468;5.804;2023-02-01T00:29:22;3.90;;;1.87;;
20334;SDS011;10325;51.468;5.804;2023-02-01T00:31:53;3.93;;;1.80;;
20334;SDS011;10325;51.468;5.804;2023-02-01T00:34:24;2.63;;;1.60;;
20334;SDS011;10325;51.468;5.804;2023-02-01T00:36:51;4.50;;;1.50;;
20334;SDS011;10325;51.468;5.804;2023-02-01T00:39:21;2.83;;;1.80;;
20334;SDS011;10325;51.468;5.804;2023-02-01T00:41:51;4.67;;;2.00;;
20334;SDS011;10325;51.468;5.804;2023-02-01T00:44:19;4.30;;;2.17;;
20334;SDS011;10325;51.468;5.804;2023-02-01T00:46:49;3.70;;;2.20;;
20334;SDS011;10325;51.468;5.804;2023-02-01T00:49:21;3.97;;;1.80;;
20334;SDS011;10325;51.468;5.804;2023-02-01T00:51:50;3.00;;;1.50;;
20334;SDS011;10325;51.468;5.804;2023-02-01T00:54:20;4.03;;;2.00;;
20334;SDS011;10325;51.468;5.804;2023-02-01T00:56:50;6.33;;;2.33;;
20334;SDS011;10325;51.468;5.804;2023-02-01T00:59:20;3.53;;;2.27;;
20334;SDS011;10325;51.468;5.804;2023-02-01T01:01:51;4.97;;;1.70;;
20334;SDS011;10325;51.468;5.804;2023-02-01T01:04:22;4.20;;;2.00;;
20334;SDS011;10325;51.468;5.804;2023-02-01T01:06:51;3.27;;;1.77;;
20334;SDS011;10325;51.468;5.804;2023-02-01T01:09:23;4.30;;;2.10;;
20334;SDS011;10325;51.468;5.804;2023-02-01T01:11:53;6.33;;;2.27;;
20334;SDS011;10325;51.468;5.804;2023-02-01T01:14:22;3.20;;;2.20;;
20334;SDS011;10325;51.468;5.804;2023-02-01T01:16:51;4.47;;;2.13;;
20334;SDS011;10325;51.468;5.804;2023-02-01T01:19:22;3.20;;;1.87;;
20334;SDS011;10325;51.468;5.804;2023-02-01T01:21:54;3.20;;;1.63;;
20334;SDS011;10325;51.468;5.804;2023-02-01T01:24:26;6.10;;;1.90;;
20334;SDS011;10325;51.468;5.804;2023-02-01T01:26:55;3.20;;;1.87;;
20334;SDS011;10325;51.468;5.804;2023-02-01T01:29:26;4.80;;;2.10;;
20334;SDS011;10325;51.468;5.804;2023-02-01T01:31:55;3.00;;;1.90;;
20334;SDS011;10325;51.468;5.804;2023-02-01T01:34:26;3.83;;;1.87;;
20334;SDS011;10325;51.468;5.804;2023-02-01T01:37:09;3.50;;;1.67;;
20334;SDS011;10325;51.468;5.804;2023-02-01T01:39:40;5.57;;;1.60;;
20334;SDS011;10325;51.468;5.804;2023-02-01T01:42:12;5.20;;;2.20;;
20334;SDS011;10325;51.468;5.804;2023-02-01T01:47:41;3.97;;;1.60;;
20334;SDS011;10325;51.468;5.804;2023-02-01T01:50:18;3.97;;;1.73;;
20334;SDS011;10325;51.468;5.804;2023-02-01T01:52:50;3.13;;;1.53;;
20334;SDS011;10325;51.468;5.804;2023-02-01T01:55:24;2.70;;;1.40;;
20334;SDS011;10325;51.468;5.804;2023-02-01T01:58:08;3.23;;;1.57;;
20334;SDS011;10325;51.468;5.804;2023-02-01T02:00:46;2.63;;;1.50;;
20334;SDS011;10325;51.468;5.804;2023-02-01T02:03:22;3.30;;;1.60;;
20334;SDS011;10325;51.468;5.804;2023-02-01T02:06:03;3.47;;;2.03;;
20334;SDS011;10325;51.468;5.804;2023-02-01T02:08:49;4.33;;;1.53;;
20334;SDS011;10325;51.468;5.804;2023-02-01T02:11:21;5.67;;;1.97;;
20334;SDS011;10325;51.468;5.804;2023-02-01T02:13:53;2.90;;;1.40;;
20334;SDS011;10325;51.468;5.804;2023-02-01T02:35:02;4.83;;;1.50;;
20334;SDS011;10325;51.468;5.804;2023-02-01T02:38:41;4.77;;;1.77;;
20334;SDS011;10325;51.468;5.804;2023-02-01T02:41:13;2.57;;;1.40;;
20334;SDS011;10325;51.468;5.804;2023-02-01T02:44:38;3.17;;;1.47;;
20334;SDS011;10325;51.468;5.804;2023-02-01T02:51:08;3.83;;;1.60;;
20334;SDS011;10325;51.468;5.804;2023-02-01T02:54:48;5.23;;;1.73;;
20334;SDS011;10325;51.468;5.804;2023-02-01T02:57:25;2.77;;;1.60;;
20334;SDS011;10325;51.468;5.804;2023-02-01T03:00:35;7.57;;;2.00;;
20334;SDS011;10325;51.468;5.804;2023-02-01T03:03:26;3.80;;;1.90;;
20334;SDS011;10325;51.468;5.804;2023-02-01T03:06:16;2.77;;;1.40;;
20334;SDS011;10325;51.468;5.804;2023-02-01T03:08:50;4.90;;;1.70;;
20334;SDS011;10325;51.468;5.804;2023-02-01T03:11:25;3.87;;;2.00;;
20334;SDS011;10325;51.468;5.804;2023-02-01T03:14:21;5.27;;;1.70;;
20334;SDS011;10325;51.468;5.804;2023-02-01T03:17:11;4.67;;;1.67;;
20334;SDS011;10325;51.468;5.804;2023-02-01T03:19:45;4.57;;;2.00;;
20334;SDS011;10325;51.468;5.804;2023-02-01T03:22:18;3.57;;;1.93;;
20334;SDS011;10325;51.468;5.804;2023-02-01T03:27:30;4.00;;;1.90;;
20334;SDS011;10325;51.468;5.804;2023-02-01T03:32:40;3.40;;;1.67;;
20334;SDS011;10325;51.468;5.804;2023-02-01T03:38:09;4.53;;;1.83;;
20334;SDS011;10325;51.468;5.804;2023-02-01T03:40:51;4.70;;;1.93;;
20334;SDS011;10325;51.468;5.804;2023-02-01T03:46:49;3.00;;;1.70;;
20334;SDS011;10325;51.468;5.804;2023-02-01T03:49:32;4.23;;;1.60;;
20334;SDS011;10325;51.468;5.804;2023-02-01T03:52:28;2.50;;;1.20;;
20334;SDS011;10325;51.468;5.804;2023-02-01T03:55:31;4.10;;;1.53;;
20334;SDS011;10325;51.468;5.804;2023-02-01T03:58:06;4.47;;;1.77;;
20334;SDS011;10325;51.468;5.804;2023-02-01T04:00:45;4.77;;;1.80;;
20334;SDS011;10325;51.468;5.804;2023-02-01T04:03:25;3.07;;;1.47;;
20334;SDS011;10325;51.468;5.804;2023-02-01T04:05:53;4.47;;;1.70;;
20334;SDS011;10325;51.468;5.804;2023-02-01T04:08:24;5.03;;;1.90;;
20334;SDS011;10325;51.468;5.804;2023-02-01T04:10:55;4.93;;;2.00;;
20334;SDS011;10325;51.468;5.804;2023-02-01T04:13:27;4.70;;;2.13;;
20334;SDS011;10325;51.468;5.804;2023-02-01T04:15:59;3.87;;;1.50;;
20334;SDS011;10325;51.468;5.804;2023-02-01T04:18:30;3.50;;;1.80;;
20334;SDS011;10325;51.468;5.804;2023-02-01T04:20:58;3.23;;;1.97;;
20334;SDS011;10325;51.468;5.804;2023-02-01T04:23:33;3.80;;;1.60;;
20334;SDS011;10325;51.468;5.804;2023-02-01T04:26:04;2.60;;;1.30;;
20334;SDS011;10325;51.468;5.804;2023-02-01T04:28:35;5.17;;;1.97;;
20334;SDS011;10325;51.468;5.804;2023-02-01T04:31:07;4.37;;;1.43;;
20334;SDS011;10325;51.468;5.804;2023-02-01T04:33:35;5.70;;;2.10;;
20334;SDS011;10325;51.468;5.804;2023-02-01T04:36:12;4.93;;;1.63;;
20334;SDS011;10325;51.468;5.804;2023-02-01T04:38:40;2.83;;;1.40;;
20334;SDS011;10325;51.468;5.804;2023-02-01T04:41:08;3.70;;;1.50;;
20334;SDS011;10325;51.468;5.804;2023-02-01T04:43:51;5.60;;;1.77;;
20334;SDS011;10325;51.468;5.804;2023-02-01T04:46:22;4.83;;;1.50;;
20334;SDS011;10325;51.468;5.804;2023-02-01T04:48:54;3.17;;;2.30;;
20334;SDS011;10325;51.468;5.804;2023-02-01T04:51:26;3.20;;;1.60;;
20334;SDS011;10325;51.468;5.804;2023-02-01T04:53:57;2.63;;;1.27;;
20334;SDS011;10325;51.468;5.804;2023-02-01T04:56:28;5.63;;;1.73;;
20334;SDS011;10325;51.468;5.804;2023-02-01T04:58:56;3.23;;;1.70;;
20334;SDS011;10325;51.468;5.804;2023-02-01T05:01:28;5.50;;;1.80;;
20334;SDS011;10325;51.468;5.804;2023-02-01T05:03:58;3.20;;;1.60;;
20334;SDS011;10325;51.468;5.804;2023-02-01T05:06:30;3.00;;;1.60;;
20334;SDS011;10325;51.468;5.804;2023-02-01T05:09:04;4.63;;;1.70;;
20334;SDS011;10325;51.468;5.804;2023-02-01T05:11:34;4.60;;;1.90;;
20334;SDS011;10325;51.468;5.804;2023-02-01T05:14:25;4.10;;;1.77;;
20334;SDS011;10325;51.468;5.804;2023-02-01T05:16:55;4.17;;;1.80;;
20334;SDS011;10325;51.468;5.804;2023-02-01T05:19:28;4.30;;;1.93;;
20334;SDS011;10325;51.468;5.804;2023-02-01T05:21:59;4.07;;;1.60;;
20334;SDS011;10325;51.468;5.804;2023-02-01T05:24:30;3.33;;;1.63;;
20334;SDS011;10325;51.468;5.804;2023-02-01T05:27:02;3.53;;;2.20;;
20334;SDS011;10325;51.468;5.804;2023-02-01T05:29:31;5.43;;;1.90;;
20334;SDS011;10325;51.468;5.804;2023-02-01T05:32:03;4.67;;;2.00;;
20334;SDS011;10325;51.468;5.804;2023-02-01T05:34:47;2.87;;;1.47;;
20334;SDS011;10325;51.468;5.804;2023-02-01T05:37:18;4.37;;;1.73;;
20334;SDS011;10325;51.468;5.804;2023-02-01T05:39:49;2.93;;;1.33;;
20334;SDS011;10325;51.468;5.804;2023-02-01T05:42:18;4.60;;;1.87;;
20334;SDS011;10325;51.468;5.804;2023-02-01T05:44:45;5.20;;;1.80;;
20334;SDS011;10325;51.468;5.804;2023-02-01T05:47:16;4.57;;;1.60;;
20334;SDS011;10325;51.468;5.804;2023-02-01T05:49:55;3.77;;;1.23;;
20334;SDS011;10325;51.468;5.804;2023-02-01T05:52:25;4.63;;;1.70;;
20334;SDS011;10325;51.468;5.804;2023-02-01T05:54:57;5.50;;;2.00;;
20334;SDS011;10325;51.468;5.804;2023-02-01T05:57:29;4.00;;;1.50;;
20334;SDS011;10325;51.468;5.804;2023-02-01T06:00:00;4.20;;;2.00;;
20334;SDS011;10325;51.468;5.804;2023-02-01T06:02:34;5.80;;;1.53;;
20334;SDS011;10325;51.468;5.804;2023-02-01T06:05:05;4.37;;;1.80;;
20334;SDS011;10325;51.468;5.804;2023-02-01T06:07:36;4.50;;;1.50;;
20334;SDS011;10325;51.468;5.804;2023-02-01T06:10:18;5.50;;;1.77;;
20334;SDS011;10325;51.468;5.804;2023-02-01T06:12:50;6.50;;;2.00;;
20334;SDS011;10325;51.468;5.804;2023-02-01T06:15:21;5.63;;;1.63;;
20334;SDS011;10325;51.468;5.804;2023-02-01T06:17:51;4.13;;;1.83;;
20334;SDS011;10325;51.468;5.804;2023-02-01T06:20:20;5.17;;;1.90;;
20334;SDS011;10325;51.468;5.804;2023-02-01T06:22:50;5.70;;;1.83;;
20334;SDS011;10325;51.468;5.804;2023-02-01T06:25:21;5.40;;;2.00;;
20334;SDS011;10325;51.468;5.804;2023-02-01T06:28:03;3.47;;;1.57;;
20334;SDS011;10325;51.468;5.804;2023-02-01T06:30:47;6.27;;;2.20;;
20334;SDS011;10325;51.468;5.804;2023-02-01T06:33:17;4.87;;;1.90;;
20334;SDS011;10325;51.468;5.804;2023-02-01T06:35:47;7.47;;;2.07;;
20334;SDS011;10325;51.468;5.804;2023-02-01T06:38:18;5.40;;;1.77;;
20334;SDS011;10325;51.468;5.804;2023-02-01T06:40:54;9.83;;;1.80;;
20334;SDS011;10325;51.468;5.804;2023-02-01T06:43:27;5.40;;;1.90;;
20334;SDS011;10325;51.468;5.804;2023-02-01T06:45:58;5.40;;;1.67;;
20334;SDS011;10325;51.468;5.804;2023-02-01T06:48:34;3.47;;;1.83;;
20334;SDS011;10325;51.468;5.804;2023-02-01T06:51:17;4.40;;;1.90;;
20334;SDS011;10325;51.468;5.804;2023-02-01T06:54:01;7.40;;;1.90;;
20334;SDS011;10325;51.468;5.804;2023-02-01T06:56:32;6.70;;;2.00;;
20334;SDS011;10325;51.468;5.804;2023-02-01T06:59:14;4.37;;;2.03;;
20334;SDS011;10325;51.468;5.804;2023-02-01T07:01:44;5.87;;;2.30;;
20334;SDS011;10325;51.468;5.804;2023-02-01T07:04:17;5.33;;;2.00;;
20334;SDS011;10325;51.468;5.804;2023-02-01T07:06:47;5.90;;;1.87;;
20334;SDS011;10325;51.468;5.804;2023-02-01T07:09:17;3.70;;;1.70;;
20334;SDS011;10325;51.468;5.804;2023-02-01T07:12:02;5.87;;;2.13;;
20334;SDS011;10325;51.468;5.804;2023-02-01T07:14:34;5.17;;;1.83;;
20334;SDS011;10325;51.468;5.804;2023-02-01T07:17:08;5.37;;;1.90;;
20334;SDS011;10325;51.468;5.804;2023-02-01T07:19:42;5.33;;;1.90;;
20334;SDS011;10325;51.468;5.804;2023-02-01T07:22:12;4.33;;;1.83;;
20334;SDS011;10325;51.468;5.804;2023-02-01T07:24:42;4.93;;;1.97;;
20334;SDS011;10325;51.468;5.804;2023-02-01T07:27:11;6.93;;;1.80;;
20334;SDS011;10325;51.468;5.804;2023-02-01T07:29:46;6.50;;;2.10;;
20334;SDS011;10325;51.468;5.804;2023-02-01T07:32:12;4.07;;;1.50;;
20334;SDS011;10325;51.468;5.804;2023-02-01T07:34:44;11.00;;;2.13;;
20334;SDS011;10325;51.468;5.804;2023-02-01T07:37:16;11.97;;;1.70;;
20334;SDS011;10325;51.468;5.804;2023-02-01T07:39:44;6.67;;;1.77;;
20334;SDS011;10325;51.468;5.804;2023-02-01T07:42:16;7.07;;;2.20;;
20334;SDS011;10325;51.468;5.804;2023-02-01T07:44:44;5.73;;;2.07;;
20334;SDS011;10325;51.468;5.804;2023-02-01T07:47:12;6.97;;;2.10;;
20334;SDS011;10325;51.468;5.804;2023-02-01T07:49:46;4.33;;;1.77;;
20334;SDS011;10325;51.468;5.804;2023-02-01T07:52:16;6.77;;;2.03;;
20334;SDS011;10325;51.468;5.804;2023-02-01T07:54:48;5.60;;;2.03;;
20334;SDS011;10325;51.468;5.804;2023-02-01T07:57:23;4.80;;;1.90;;
20334;SDS011;10325;51.468;5.804;2023-02-01T07:59:54;6.40;;;2.10;;
20334;SDS011;10325;51.468;5.804;2023-02-01T08:02:57;3.30;;;1.77;;
20334;SDS011;10325;51.468;5.804;2023-02-01T08:05:30;4.30;;;1.77;;
20334;SDS011;10325;51.468;5.804;2023-02-01T08:08:02;4.53;;;1.70;;
20334;SDS011;10325;51.468;5.804;2023-02-01T08:10:33;5.70;;;2.03;;
20334;SDS011;10325;51.468;5.804;2023-02-01T08:13:07;4.80;;;1.80;;
20334;SDS011;10325;51.468;5.804;2023-02-01T08:15:37;5.80;;;1.97;;
20334;SDS011;10325;51.468;5.804;2023-02-01T08:18:09;7.70;;;2.07;;
20334;SDS011;10325;51.468;5.804;2023-02-01T08:20:39;5.27;;;2.37;;
20334;SDS011;10325;51.468;5.804;2023-02-01T08:23:14;5.53;;;1.70;;
20334;SDS011;10325;51.468;5.804;2023-02-01T08:25:47;6.20;;;2.23;;
20334;SDS011;10325;51.468;5.804;2023-02-01T08:28:18;6.67;;;2.10;;
20334;SDS011;10325;51.468;5.804;2023-02-01T08:30:48;4.83;;;2.13;;
20334;SDS011;10325;51.468;5.804;2023-02-01T08:33:16;3.93;;;1.70;;
20334;SDS011;10325;51.468;5.804;2023-02-01T08:35:44;6.53;;;2.40;;
20334;SDS011;10325;51.468;5.804;2023-02-01T08:38:16;3.80;;;1.60;;
20334;SDS011;10325;51.468;5.804;2023-02-01T08:40:46;5.13;;;1.63;;
20334;SDS011;10325;51.468;5.804;2023-02-01T08:43:18;7.43;;;2.13;;
20334;SDS011;10325;51.468;5.804;2023-02-01T08:45:50;3.80;;;1.90;;
20334;SDS011;10325;51.468;5.804;2023-02-01T08:48:24;4.03;;;1.83;;
20334;SDS011;10325;51.468;5.804;2023-02-01T08:50:57;5.73;;;2.10;;
20334;SDS011;10325;51.468;5.804;2023-02-01T08:53:29;3.53;;;1.70;;
20334;SDS011;10325;51.468;5.804;2023-02-01T08:55:58;4.40;;;1.73;;
20334;SDS011;10325;51.468;5.804;2023-02-01T08:58:29;14.20;;;2.17;;
20334;SDS011;10325;51.468;5.804;2023-02-01T09:01:09;4.47;;;1.90;;
20334;SDS011;10325;51.468;5.804;2023-02-01T09:03:41;3.70;;;1.80;;
20334;SDS011;10325;51.468;5.804;2023-02-01T09:06:12;2.83;;;1.67;;
20334;SDS011;10325;51.468;5.804;2023-02-01T09:08:41;4.07;;;1.77;;
20334;SDS011;10325;51.468;5.804;2023-02-01T09:11:14;4.07;;;1.87;;
20334;SDS011;10325;51.468;5.804;2023-02-01T09:13:46;4.37;;;2.00;;
20334;SDS011;10325;51.468;5.804;2023-02-01T09:16:18;4.63;;;1.80;;
20334;SDS011;10325;51.468;5.804;2023-02-01T09:18:49;3.27;;;1.67;;
20334;SDS011;10325;51.468;5.804;2023-02-01T09:21:33;4.53;;;1.83;;
20334;SDS011;10325;51.468;5.804;2023-02-01T09:24:04;3.27;;;1.57;;
20334;SDS011;10325;51.468;5.804;2023-02-01T09:26:51;3.03;;;1.50;;
20334;SDS011;10325;51.468;5.804;2023-02-01T09:29:21;4.37;;;2.20;;
20334;SDS011;10325;51.468;5.804;2023-02-01T09:31:54;3.73;;;2.00;;
20334;SDS011;10325;51.468;5.804;2023-02-01T09:34:31;3.20;;;1.83;;
20334;SDS011;10325;51.468;5.804;2023-02-01T09:37:07;2.67;;;1.57;;
20334;SDS011;10325;51.468;5.804;2023-02-01T09:39:36;4.13;;;1.90;;
20334;SDS011;10325;51.468;5.804;2023-02-01T09:45:44;3.13;;;1.60;;
20334;SDS011;10325;51.468;5.804;2023-02-01T09:48:23;3.73;;;1.97;;
20334;SDS011;10325;51.468;5.804;2023-02-01T09:51:14;3.30;;;1.77;;
20334;SDS011;10325;51.468;5.804;2023-02-01T09:53:55;5.37;;;2.07;;
20334;SDS011;10325;51.468;5.804;2023-02-01T09:59:42;7.63;;;2.10;;
20334;SDS011;10325;51.468;5.804;2023-02-01T10:02:19;2.77;;;1.70;;
20334;SDS011;10325;51.468;5.804;2023-02-01T10:04:54;3.43;;;1.80;;
20334;SDS011;10325;51.468;5.804;2023-02-01T10:17:00;5.83;;;2.00;;
20334;SDS011;10325;51.468;5.804;2023-02-01T10:22:32;4.23;;;2.00;;
20334;SDS011;10325;51.468;5.804;2023-02-01T10:26:00;3.77;;;2.00;;
20334;SDS011;10325;51.468;5.804;2023-02-01T10:28:49;5.93;;;2.03;;
20334;SDS011;10325;51.468;5.804;2023-02-01T10:31:21;6.63;;;1.87;;
20334;SDS011;10325;51.468;5.804;2023-02-01T10:34:00;6.10;;;2.10;;
20334;SDS011;10325;51.468;5.804;2023-02-01T10:36:42;4.93;;;2.00;;
20334;SDS011;10325;51.468;5.804;2023-02-01T10:39:36;4.10;;;1.97;;
20334;SDS011;10325;51.468;5.804;2023-02-01T10:42:07;3.80;;;2.00;;
20334;SDS011;10325;51.468;5.804;2023-02-01T10:44:40;7.23;;;2.47;;
20334;SDS011;10325;51.468;5.804;2023-02-01T10:47:18;5.77;;;2.60;;
20334;SDS011;10325;51.468;5.804;2023-02-01T10:55:54;4.70;;;2.10;;
20334;SDS011;10325;51.468;5.804;2023-02-01T10:58:30;4.80;;;2.10;;
20334;SDS011;10325;51.468;5.804;2023-02-01T11:01:09;14.73;;;4.30;;
20334;SDS011;10325;51.468;5.804;2023-02-01T11:04:05;36.37;;;11.53;;
20334;SDS011;10325;51.468;5.804;2023-02-01T11:06:41;40.77;;;10.93;;
20334;SDS011;10325;51.468;5.804;2023-02-01T11:09:24;37.10;;;9.23;;
20334;SDS011;10325;51.468;5.804;2023-02-01T11:11:56;28.53;;;7.80;;
20334;SDS011;10325;51.468;5.804;2023-02-01T11:14:38;18.43;;;6.23;;
20334;SDS011;10325;51.468;5.804;2023-02-01T11:20:38;27.80;;;6.60;;
20334;SDS011;10325;51.468;5.804;2023-02-01T11:22:47;18.30;;;6.10;;
20334;SDS011;10325;51.468;5.804;2023-02-01T11:25:59;16.67;;;5.40;;
20334;SDS011;10325;51.468;5.804;2023-02-01T11:28:46;16.37;;;5.53;;
20334;SDS011;10325;51.468;5.804;2023-02-01T11:31:22;18.97;;;5.90;;
20334;SDS011;10325;51.468;5.804;2023-02-01T11:34:04;18.57;;;5.30;;
20334;SDS011;10325;51.468;5.804;2023-02-01T11:36:48;13.93;;;5.07;;
20334;SDS011;10325;51.468;5.804;2023-02-01T11:44:47;12.03;;;4.57;;
20334;SDS011;10325;51.468;5.804;2023-02-01T11:47:28;12.83;;;4.20;;
20334;SDS011;10325;51.468;5.804;2023-02-01T11:50:19;11.77;;;3.77;;
20334;SDS011;10325;51.468;5.804;2023-02-01T12:13:26;11.80;;;3.03;;
20334;SDS011;10325;51.468;5.804;2023-02-01T12:25:39;7.37;;;3.23;;
20334;SDS011;10325;51.468;5.804;2023-02-01T12:31:29;9.57;;;3.00;;
20334;SDS011;10325;51.468;5.804;2023-02-01T12:40:49;16.00;;;4.20;;
20334;SDS011;10325;51.468;5.804;2023-02-01T12:44:11;8.40;;;3.23;;
20334;SDS011;10325;51.468;5.804;2023-02-01T12:47:05;11.33;;;3.30;;
20334;SDS011;10325;51.468;5.804;2023-02-01T12:50:03;6.80;;;2.67;;
20334;SDS011;10325;51.468;5.804;2023-02-01T12:52:58;11.07;;;3.43;;
20334;SDS011;10325;51.468;5.804;2023-02-01T12:55:55;6.43;;;2.80;;
20334;SDS011;10325;51.468;5.804;2023-02-01T13:01:24;9.03;;;3.20;;
20334;SDS011;10325;51.468;5.804;2023-02-01T13:04:12;10.90;;;3.27;;
20334;SDS011;10325;51.468;5.804;2023-02-01T13:06:53;7.83;;;2.80;;
20334;SDS011;10325;51.468;5.804;2023-02-01T13:12:43;7.70;;;2.73;;
20334;SDS011;10325;51.468;5.804;2023-02-01T13:15:26;6.63;;;2.77;;
20334;SDS011;10325;51.468;5.804;2023-02-01T13:18:04;7.17;;;2.70;;
20334;SDS011;10325;51.468;5.804;2023-02-01T13:20:41;8.13;;;3.30;;
20334;SDS011;10325;51.468;5.804;2023-02-01T13:23:30;7.90;;;2.80;;
20334;SDS011;10325;51.468;5.804;2023-02-01T13:26:03;10.10;;;2.87;;
20334;SDS011;10325;51.468;5.804;2023-02-01T13:31:38;10.73;;;2.43;;
20334;SDS011;10325;51.468;5.804;2023-02-01T13:37:42;5.57;;;2.13;;
20334;SDS011;10325;51.468;5.804;2023-02-01T13:40:31;9.50;;;2.00;;
20334;SDS011;10325;51.468;5.804;2023-02-01T13:43:23;6.50;;;2.40;;
20334;SDS011;10325;51.468;5.804;2023-02-01T13:45:57;9.97;;;2.73;;
20334;SDS011;10325;51.468;5.804;2023-02-01T13:48:54;7.50;;;2.20;;
20334;SDS011;10325;51.468;5.804;2023-02-01T13:51:40;7.43;;;2.50;;
20334;SDS011;10325;51.468;5.804;2023-02-01T13:54:39;6.23;;;2.13;;
20334;SDS011;10325;51.468;5.804;2023-02-01T13:57:44;6.70;;;2.33;;
20334;SDS011;10325;51.468;5.804;2023-02-01T14:00:53;6.63;;;2.30;;
20334;SDS011;10325;51.468;5.804;2023-02-01T14:03:10;5.93;;;2.30;;
20334;SDS011;10325;51.468;5.804;2023-02-01T14:08:45;6.30;;;2.43;;
20334;SDS011;10325;51.468;5.804;2023-02-01T14:11:50;4.70;;;1.97;;
20334;SDS011;10325;51.468;5.804;2023-02-01T14:23:15;4.37;;;1.90;;
20334;SDS011;10325;51.468;5.804;2023-02-01T14:26:02;6.90;;;2.30;;
20334;SDS011;10325;51.468;5.804;2023-02-01T14:28:38;6.50;;;2.40;;
20334;SDS011;10325;51.468;5.804;2023-02-01T14:40:02;6.10;;;2.07;;
20334;SDS011;10325;51.468;5.804;2023-02-01T14:42:45;5.40;;;2.07;;
20334;SDS011;10325;51.468;5.804;2023-02-01T14:50:39;6.77;;;2.10;;
20334;SDS011;10325;51.468;5.804;2023-02-01T14:58:42;6.03;;;2.23;;
20334;SDS011;10325;51.468;5.804;2023-02-01T15:01:29;6.27;;;2.00;;
20334;SDS011;10325;51.468;5.804;2023-02-01T15:04:04;5.17;;;1.87;;
20334;SDS011;10325;51.468;5.804;2023-02-01T15:06:54;7.00;;;2.03;;
20334;SDS011;10325;51.468;5.804;2023-02-01T15:09:45;6.87;;;2.50;;
20334;SDS011;10325;51.468;5.804;2023-02-01T15:12:24;5.60;;;1.80;;
20334;SDS011;10325;51.468;5.804;2023-02-01T15:15:12;5.93;;;1.87;;
20334;SDS011;10325;51.468;5.804;2023-02-01T15:17:55;5.53;;;1.90;;
20334;SDS011;10325;51.468;5.804;2023-02-01T15:20:32;6.50;;;2.13;;
20334;SDS011;10325;51.468;5.804;2023-02-01T15:23:24;6.53;;;2.23;;
20334;SDS011;10325;51.468;5.804;2023-02-01T15:25:53;5.20;;;2.20;;
20334;SDS011;10325;51.468;5.804;2023-02-01T15:28:22;4.90;;;1.70;;
20334;SDS011;10325;51.468;5.804;2023-02-01T15:30:59;7.60;;;1.87;;
20334;SDS011;10325;51.468;5.804;2023-02-01T15:33:36;5.73;;;1.70;;
20334;SDS011;10325;51.468;5.804;2023-02-01T15:38:47;4.73;;;2.00;;
20334;SDS011;10325;51.468;5.804;2023-02-01T15:41:17;7.33;;;2.37;;
20334;SDS011;10325;51.468;5.804;2023-02-01T15:46:34;6.10;;;1.83;;
20334;SDS011;10325;51.468;5.804;2023-02-01T15:51:59;5.07;;;1.80;;
20334;SDS011;10325;51.468;5.804;2023-02-01T15:54:48;5.37;;;2.20;;
20334;SDS011;10325;51.468;5.804;2023-02-01T15:57:22;3.23;;;1.90;;
20334;SDS011;10325;51.468;5.804;2023-02-01T16:00:17;6.43;;;2.23;;
20334;SDS011;10325;51.468;5.804;2023-02-01T16:03:10;5.90;;;2.40;;
20334;SDS011;10325;51.468;5.804;2023-02-01T16:06:06;5.97;;;2.00;;
20334;SDS011;10325;51.468;5.804;2023-02-01T16:09:15;4.37;;;1.63;;
20334;SDS011;10325;51.468;5.804;2023-02-01T16:11:57;4.23;;;2.00;;
20334;SDS011;10325;51.468;5.804;2023-02-01T16:14:32;4.93;;;1.70;;
20334;SDS011;10325;51.468;5.804;2023-02-01T16:17:00;6.50;;;2.07;;
20334;SDS011;10325;51.468;5.804;2023-02-01T16:19:33;5.07;;;1.80;;
20334;SDS011;10325;51.468;5.804;2023-02-01T16:22:02;5.73;;;1.70;;
20334;SDS011;10325;51.468;5.804;2023-02-01T16:24:29;5.20;;;2.30;;
20334;SDS011;10325;51.468;5.804;2023-02-01T16:27:01;7.90;;;2.20;;
20334;SDS011;10325;51.468;5.804;2023-02-01T16:29:32;4.80;;;2.10;;
20334;SDS011;10325;51.468;5.804;2023-02-01T16:31:59;7.00;;;2.17;;
20334;SDS011;10325;51.468;5.804;2023-02-01T16:34:29;3.47;;;1.70;;
20334;SDS011;10325;51.468;5.804;2023-02-01T16:36:58;7.27;;;2.70;;
20334;SDS011;10325;51.468;5.804;2023-02-01T16:39:29;5.43;;;2.47;;
20334;SDS011;10325;51.468;5.804;2023-02-01T16:42:08;7.30;;;2.27;;
20334;SDS011;10325;51.468;5.804;2023-02-01T16:44:42;7.63;;;2.67;;
20334;SDS011;10325;51.468;5.804;2023-02-01T16:47:20;6.57;;;2.43;;
20334;SDS011;10325;51.468;5.804;2023-02-01T16:49:49;9.07;;;2.80;;
20334;SDS011;10325;51.468;5.804;2023-02-01T16:52:19;7.40;;;2.73;;
20334;SDS011;10325;51.468;5.804;2023-02-01T16:55:15;7.17;;;2.43;;
20334;SDS011;10325;51.468;5.804;2023-02-01T16:57:55;7.30;;;2.63;;
20334;SDS011;10325;51.468;5.804;2023-02-01T17:00:25;9.80;;;2.53;;
20334;SDS011;10325;51.468;5.804;2023-02-01T17:02:59;9.77;;;2.60;;
20334;SDS011;10325;51.468;5.804;2023-02-01T17:05:31;7.57;;;2.80;;
20334;SDS011;10325;51.468;5.804;2023-02-01T17:08:04;6.73;;;2.73;;
20334;SDS011;10325;51.468;5.804;2023-02-01T17:10:37;5.70;;;2.37;;
20334;SDS011;10325;51.468;5.804;2023-02-01T17:13:14;7.03;;;2.37;;
20334;SDS011;10325;51.468;5.804;2023-02-01T17:15:47;8.50;;;2.70;;
20334;SDS011;10325;51.468;5.804;2023-02-01T17:18:30;6.53;;;2.10;;
20334;SDS011;10325;51.468;5.804;2023-02-01T17:21:04;7.03;;;2.47;;
20334;SDS011;10325;51.468;5.804;2023-02-01T17:23:41;6.47;;;2.57;;
20334;SDS011;10325;51.468;5.804;2023-02-01T17:26:12;7.70;;;2.37;;
20334;SDS011;10325;51.468;5.804;2023-02-01T17:28:43;7.40;;;2.90;;
20334;SDS011;10325;51.468;5.804;2023-02-01T17:31:14;8.10;;;2.83;;
20334;SDS011;10325;51.468;5.804;2023-02-01T17:33:44;6.07;;;2.50;;
20334;SDS011;10325;51.468;5.804;2023-02-01T17:36:27;6.47;;;2.77;;
20334;SDS011;10325;51.468;5.804;2023-02-01T17:38:55;5.13;;;2.47;;
20334;SDS011;10325;51.468;5.804;2023-02-01T17:41:32;5.37;;;2.73;;
20334;SDS011;10325;51.468;5.804;2023-02-01T17:44:05;6.47;;;2.70;;
20334;SDS011;10325;51.468;5.804;2023-02-01T17:46:36;5.23;;;2.20;;
20334;SDS011;10325;51.468;5.804;2023-02-01T17:49:08;6.87;;;2.37;;
20334;SDS011;10325;51.468;5.804;2023-02-01T17:51:36;5.50;;;2.23;;
20334;SDS011;10325;51.468;5.804;2023-02-01T17:54:10;6.20;;;2.40;;
20334;SDS011;10325;51.468;5.804;2023-02-01T17:56:41;5.97;;;2.20;;
20334;SDS011;10325;51.468;5.804;2023-02-01T17:59:12;5.70;;;2.50;;
20334;SDS011;10325;51.468;5.804;2023-02-01T18:01:47;4.43;;;2.40;;
20334;SDS011;10325;51.468;5.804;2023-02-01T18:04:19;6.47;;;2.60;;
20334;SDS011;10325;51.468;5.804;2023-02-01T18:06:49;5.37;;;2.07;;
20334;SDS011;10325;51.468;5.804;2023-02-01T18:09:19;6.87;;;2.50;;
20334;SDS011;10325;51.468;5.804;2023-02-01T18:11:49;7.87;;;2.87;;
20334;SDS011;10325;51.468;5.804;2023-02-01T18:14:22;5.83;;;2.27;;
20334;SDS011;10325;51.468;5.804;2023-02-01T18:16:52;4.60;;;2.03;;
20334;SDS011;10325;51.468;5.804;2023-02-01T18:19:21;7.00;;;2.40;;
20334;SDS011;10325;51.468;5.804;2023-02-01T18:21:52;5.00;;;2.30;;
20334;SDS011;10325;51.468;5.804;2023-02-01T18:24:26;5.23;;;2.23;;